createdAt,value
2023-06-09T00:00:13.348Z,19.00
2023-06-09T00:02:42.293Z,19.10
2023-06-09T00:05:10.623Z,19.00
2023-06-09T00:07:38.861Z,18.90
2023-06-09T00:10:07.650Z,18.90
2023-06-09T00:12:35.787Z,18.90
2023-06-09T00:15:06.188Z,18.90
2023-06-09T00:17:34.758Z,18.90
2023-06-09T00:20:04.540Z,18.90
2023-06-09T00:22:33.875Z,18.90
2023-06-09T00:25:02.034Z,18.90
2023-06-09T00:27:30.550Z,19.00
2023-06-09T00:29:58.763Z,18.90
2023-06-09T00:32:28.952Z,18.90
2023-06-09T00:34:57.261Z,18.90
2023-06-09T00:37:25.444Z,18.90
2023-06-09T00:39:53.603Z,18.90
2023-06-09T00:42:21.824Z,18.90
2023-06-09T00:44:49.977Z,18.90
2023-06-09T00:47:18.632Z,18.70
2023-06-09T00:49:48.165Z,18.80
2023-06-09T00:52:17.399Z,18.80
2023-06-09T00:54:46.091Z,18.70
2023-06-09T00:57:14.750Z,18.70
2023-06-09T00:59:42.931Z,18.60
2023-06-09T01:02:13.743Z,18.60
2023-06-09T01:04:50.920Z,18.70
2023-06-09T01:07:30.116Z,18.60
2023-06-09T01:10:04.744Z,18.50
2023-06-09T01:12:38.829Z,18.60
2023-06-09T01:15:13.512Z,18.60
2023-06-09T01:17:43.803Z,18.60
2023-06-09T01:20:16.972Z,18.60
2023-06-09T01:22:55.597Z,18.50
2023-06-09T01:25:35.637Z,18.50
2023-06-09T01:28:06.923Z,18.50
2023-06-09T01:30:37.958Z,18.50
2023-06-09T01:33:09.699Z,18.50
2023-06-09T01:35:39.135Z,18.60
2023-06-09T01:38:08.591Z,18.50
2023-06-09T01:40:38.520Z,18.60
2023-06-09T01:43:08.831Z,18.60
2023-06-09T01:45:38.544Z,18.70
2023-06-09T01:48:12.965Z,18.60
2023-06-09T01:50:54.137Z,18.70
2023-06-09T01:53:27.914Z,18.70
2023-06-09T01:56:04.066Z,18.80
2023-06-09T01:58:39.150Z,18.80
2023-06-09T02:01:09.650Z,18.80
2023-06-09T02:03:41.605Z,18.70
2023-06-09T02:06:12.358Z,18.70
2023-06-09T02:08:40.896Z,18.70
2023-06-09T02:11:12.324Z,18.70
2023-06-09T02:13:40.512Z,18.70
2023-06-09T02:16:08.935Z,18.70
2023-06-09T02:18:38.343Z,18.70
2023-06-09T02:21:06.640Z,18.60
2023-06-09T02:23:34.818Z,18.60
2023-06-09T02:26:03.010Z,18.60
2023-06-09T02:28:32.629Z,18.60
2023-06-09T02:31:01.307Z,18.60
2023-06-09T02:33:29.962Z,18.60
2023-06-09T02:35:59.666Z,18.60
2023-06-09T02:38:27.878Z,18.60
2023-06-09T02:40:56.165Z,18.60
2023-06-09T02:43:24.343Z,18.60
2023-06-09T02:45:55.514Z,18.50
2023-06-09T02:48:23.941Z,18.50
2023-06-09T02:50:52.166Z,18.50
2023-06-09T02:53:22.740Z,18.50
2023-06-09T02:55:51.194Z,18.50
2023-06-09T02:58:25.910Z,18.50
2023-06-09T03:00:57.131Z,18.50
2023-06-09T03:03:27.009Z,18.50
2023-06-09T03:05:55.425Z,18.50
2023-06-09T03:08:23.634Z,18.50
2023-06-09T03:10:54.083Z,18.50
2023-06-09T03:13:23.015Z,18.50
2023-06-09T03:15:54.104Z,18.40
2023-06-09T03:18:23.630Z,18.40
2023-06-09T03:20:52.027Z,18.40
2023-06-09T03:23:22.847Z,18.40
2023-06-09T03:25:53.831Z,18.40
2023-06-09T03:28:25.685Z,18.40
2023-06-09T03:30:54.004Z,18.40
2023-06-09T03:33:25.401Z,18.40
2023-06-09T03:35:55.724Z,18.40
2023-06-09T03:38:25.846Z,18.40
2023-06-09T03:40:54.578Z,18.40
2023-06-09T03:43:23.816Z,18.40
2023-06-09T03:45:52.098Z,18.50
2023-06-09T03:48:20.953Z,18.60
2023-06-09T03:50:50.775Z,18.60
2023-06-09T03:53:19.148Z,18.60
2023-06-09T03:55:47.505Z,18.70
2023-06-09T03:58:16.368Z,18.70
2023-06-09T04:00:45.024Z,18.70
2023-06-09T04:03:14.472Z,18.60
2023-06-09T04:05:44.672Z,18.60
2023-06-09T04:08:14.437Z,18.60
2023-06-09T04:10:44.114Z,18.60
2023-06-09T04:13:13.319Z,18.60
2023-06-09T04:15:41.536Z,18.60
2023-06-09T04:18:10.064Z,18.60
2023-06-09T04:20:39.390Z,18.60
2023-06-09T04:23:09.660Z,18.60
2023-06-09T04:25:43.741Z,18.50
2023-06-09T04:28:18.714Z,18.50
2023-06-09T04:30:50.203Z,18.60
2023-06-09T04:33:19.425Z,18.60
2023-06-09T04:35:55.061Z,18.60
2023-06-09T04:38:25.253Z,18.60
2023-06-09T04:40:58.928Z,18.60
2023-06-09T04:43:29.527Z,18.60
2023-06-09T04:46:00.793Z,18.60
2023-06-09T04:48:30.327Z,18.60
2023-06-09T04:51:01.422Z,18.60
2023-06-09T04:53:32.675Z,18.60
2023-06-09T04:56:02.187Z,18.60
2023-06-09T04:58:33.041Z,18.70
2023-06-09T05:01:02.425Z,18.70
2023-06-09T05:03:30.838Z,18.80
2023-06-09T05:05:59.959Z,18.80
2023-06-09T05:08:33.303Z,18.80
2023-06-09T05:11:04.140Z,18.80
2023-06-09T05:13:32.486Z,18.80
2023-06-09T05:16:00.756Z,18.90
2023-06-09T05:18:28.968Z,18.90
2023-06-09T05:20:58.278Z,18.90
2023-06-09T05:23:26.961Z,18.90
2023-06-09T05:25:55.215Z,18.90
2023-06-09T05:28:25.119Z,19.00
2023-06-09T05:30:53.483Z,19.00
2023-06-09T05:33:23.416Z,19.00
2023-06-09T05:35:52.200Z,19.00
2023-06-09T05:38:24.463Z,19.00
2023-06-09T05:40:52.659Z,19.00
2023-06-09T05:43:21.146Z,19.10
2023-06-09T05:45:50.862Z,19.10
2023-06-09T05:48:19.174Z,19.10
2023-06-09T05:50:48.203Z,19.10
2023-06-09T05:53:17.907Z,19.20
2023-06-09T05:55:47.205Z,19.20
2023-06-09T05:58:16.187Z,19.20
2023-06-09T06:00:45.404Z,19.20
2023-06-09T06:03:15.127Z,19.20
2023-06-09T06:05:43.382Z,19.20
2023-06-09T06:08:11.532Z,19.20
2023-06-09T06:10:39.672Z,19.30
2023-06-09T06:13:08.164Z,19.30
2023-06-09T06:15:36.371Z,19.30
2023-06-09T06:18:04.810Z,19.30
2023-06-09T06:20:34.419Z,19.30
2023-06-09T06:23:02.620Z,19.30
2023-06-09T06:25:30.893Z,19.30
2023-06-09T06:27:59.074Z,19.30
2023-06-09T06:30:28.327Z,19.30
2023-06-09T06:32:57.565Z,19.40
2023-06-09T06:35:27.468Z,19.40
2023-06-09T06:37:57.496Z,19.40
2023-06-09T06:40:27.132Z,19.40
2023-06-09T06:42:55.722Z,19.40
2023-06-09T06:45:45.389Z,19.40
2023-06-09T06:48:13.658Z,19.40
2023-06-09T06:50:42.190Z,19.40
2023-06-09T06:53:11.830Z,19.40
2023-06-09T06:55:40.044Z,19.50
2023-06-09T06:58:08.216Z,19.50
2023-06-09T07:00:36.685Z,19.50
2023-06-09T07:03:05.031Z,19.50
2023-06-09T07:05:33.454Z,19.50
2023-06-09T07:08:01.632Z,19.50
2023-06-09T07:10:32.274Z,19.50
2023-06-09T07:13:00.569Z,19.50
2023-06-09T07:15:28.741Z,19.50
2023-06-09T07:17:57.142Z,19.60
2023-06-09T07:20:26.116Z,19.60
2023-06-09T07:22:54.322Z,19.60
2023-06-09T07:25:22.568Z,19.60
2023-06-09T07:27:52.116Z,19.60
2023-06-09T07:30:20.528Z,19.60
2023-06-09T07:32:48.905Z,19.60
2023-06-09T07:35:17.288Z,19.60
2023-06-09T07:37:47.420Z,19.70
2023-06-09T07:40:20.250Z,19.70
2023-06-09T07:42:51.419Z,19.70
2023-06-09T07:45:20.199Z,19.70
2023-06-09T07:47:49.178Z,19.70
2023-06-09T07:50:19.002Z,19.70
2023-06-09T07:52:47.304Z,19.70
2023-06-09T07:55:16.238Z,19.70
2023-06-09T07:57:46.668Z,19.70
2023-06-09T08:00:17.358Z,19.70
2023-06-09T08:02:46.621Z,19.70
2023-06-09T08:05:24.763Z,19.80
2023-06-09T08:07:53.090Z,19.80
2023-06-09T08:10:21.260Z,19.80
2023-06-09T08:12:50.788Z,19.80
2023-06-09T08:15:20.768Z,19.80
2023-06-09T08:17:49.062Z,19.80
2023-06-09T08:20:17.321Z,19.80
2023-06-09T08:22:45.808Z,19.80
2023-06-09T08:25:14.267Z,19.90
2023-06-09T08:27:42.439Z,19.90
2023-06-09T08:30:11.341Z,19.90
2023-06-09T08:32:41.588Z,19.90
2023-06-09T08:35:10.737Z,19.90
2023-06-09T08:37:39.772Z,19.90
2023-06-09T08:40:11.107Z,19.90
2023-06-09T08:42:40.706Z,19.90
2023-06-09T08:45:10.511Z,20.00
2023-06-09T08:47:40.971Z,19.90
2023-06-09T08:50:10.517Z,20.00
2023-06-09T08:52:39.856Z,20.00
2023-06-09T08:55:10.101Z,20.00
2023-06-09T08:57:41.406Z,20.00
2023-06-09T09:00:12.895Z,20.00
2023-06-09T09:02:44.309Z,20.00
2023-06-09T09:05:12.979Z,20.10
2023-06-09T09:07:42.120Z,20.10
2023-06-09T09:10:12.225Z,20.10
2023-06-09T09:12:50.636Z,20.10
2023-06-09T09:15:19.061Z,20.10
2023-06-09T09:17:49.456Z,20.10
2023-06-09T09:20:18.141Z,20.10
2023-06-09T09:22:51.051Z,20.20
2023-06-09T09:25:27.667Z,20.20
2023-06-09T09:28:04.141Z,20.20
2023-06-09T09:30:50.035Z,20.20
2023-06-09T09:33:21.656Z,20.20
2023-06-09T09:35:52.710Z,20.20
2023-06-09T09:38:23.315Z,20.30
2023-06-09T09:40:53.366Z,20.20
2023-06-09T09:43:23.305Z,20.30
2023-06-09T09:45:53.382Z,20.30
2023-06-09T09:48:25.379Z,20.30
2023-06-09T09:50:54.627Z,20.30
2023-06-09T09:53:24.507Z,20.40
2023-06-09T09:55:54.324Z,20.40
2023-06-09T09:58:30.738Z,20.40
2023-06-09T10:01:01.307Z,20.40
2023-06-09T10:03:32.307Z,20.50
2023-06-09T10:06:04.509Z,20.50
2023-06-09T10:08:33.692Z,20.50
2023-06-09T10:11:03.247Z,20.50
2023-06-09T10:13:31.775Z,20.60
2023-06-09T10:16:01.231Z,20.60
2023-06-09T10:18:30.767Z,20.60
2023-06-09T10:20:59.249Z,20.60
2023-06-09T10:23:28.643Z,20.60
2023-06-09T10:25:57.765Z,20.60
2023-06-09T10:28:26.807Z,20.60
2023-06-09T10:30:56.143Z,20.70
2023-06-09T10:33:27.799Z,20.60
2023-06-09T10:36:01.504Z,20.70
2023-06-09T10:38:31.866Z,20.70
2023-06-09T10:41:12.174Z,20.70
2023-06-09T10:44:08.052Z,20.80
2023-06-09T10:46:41.793Z,20.80
2023-06-09T10:49:37.224Z,20.80
2023-06-09T10:52:08.082Z,20.80
2023-06-09T10:54:37.255Z,20.90
2023-06-09T10:57:07.921Z,20.90
2023-06-09T11:00:21.038Z,20.90
2023-06-09T11:02:51.274Z,20.90
2023-06-09T11:05:21.304Z,21.00
2023-06-09T11:08:04.522Z,21.00
2023-06-09T11:10:32.904Z,21.00
2023-06-09T11:13:03.552Z,21.10
2023-06-09T11:15:59.000Z,21.10
2023-06-09T11:18:27.570Z,21.10
2023-06-09T11:21:17.694Z,21.10
2023-06-09T11:24:02.886Z,21.20
2023-06-09T11:26:35.483Z,21.20
2023-06-09T11:29:05.892Z,21.20
2023-06-09T11:31:53.421Z,21.20
2023-06-09T11:34:57.041Z,21.30
2023-06-09T11:37:26.439Z,21.30
2023-06-09T11:39:56.906Z,21.30
2023-06-09T11:42:25.353Z,21.30
2023-06-09T11:44:54.204Z,21.40
2023-06-09T11:47:29.619Z,21.40
2023-06-09T11:50:05.338Z,21.40
2023-06-09T11:52:34.295Z,21.40
2023-06-09T11:55:06.021Z,21.40
2023-06-09T11:57:35.877Z,21.50
2023-06-09T12:00:14.069Z,21.60
2023-06-09T12:02:43.892Z,21.60
2023-06-09T12:05:13.944Z,21.60
2023-06-09T12:07:45.337Z,21.70
2023-06-09T12:10:18.193Z,21.70
2023-06-09T12:12:48.289Z,21.70
2023-06-09T12:15:17.668Z,21.80
2023-06-09T12:17:47.359Z,21.80
2023-06-09T12:20:28.114Z,21.80
2023-06-09T12:22:57.309Z,21.80
2023-06-09T12:25:28.225Z,21.90
2023-06-09T12:27:57.840Z,21.90
2023-06-09T12:30:39.558Z,22.00
2023-06-09T12:33:10.271Z,21.90
2023-06-09T12:35:40.042Z,21.70
2023-06-09T12:38:12.733Z,21.60
2023-06-09T12:40:53.436Z,21.70
2023-06-09T12:43:22.967Z,21.60
2023-06-09T12:45:55.974Z,21.60
2023-06-09T12:48:24.658Z,21.40
2023-06-09T12:50:52.965Z,21.50
2023-06-09T12:53:21.100Z,21.70
2023-06-09T12:55:50.711Z,21.70
2023-06-09T12:58:19.721Z,21.80
2023-06-09T13:00:47.853Z,21.70
2023-06-09T13:03:17.368Z,21.70
2023-06-09T13:05:45.652Z,21.70
2023-06-09T13:08:13.805Z,21.80
2023-06-09T13:10:41.957Z,21.80
2023-06-09T13:13:11.471Z,21.80
2023-06-09T13:15:39.613Z,21.80
2023-06-09T13:18:10.610Z,21.80
2023-06-09T13:20:38.947Z,21.80
2023-06-09T13:23:07.159Z,21.70
2023-06-09T13:25:35.468Z,21.70
2023-06-09T13:28:03.724Z,21.70
2023-06-09T13:30:33.374Z,21.70
2023-06-09T13:33:01.588Z,21.70
2023-06-09T13:35:30.052Z,21.70
2023-06-09T13:37:58.745Z,21.70
2023-06-09T13:40:27.036Z,21.70
2023-06-09T13:42:55.224Z,21.70
2023-06-09T13:45:24.429Z,21.60
2023-06-09T13:47:59.881Z,21.70
2023-06-09T13:50:30.176Z,21.70
2023-06-09T13:52:58.331Z,21.60
2023-06-09T13:55:26.776Z,21.60
2023-06-09T13:57:55.090Z,21.70
2023-06-09T14:00:23.297Z,21.60
2023-06-09T14:02:53.344Z,21.60
2023-06-09T14:05:25.845Z,21.60
2023-06-09T14:07:54.079Z,21.60
2023-06-09T14:10:22.294Z,21.60
2023-06-09T14:12:50.561Z,21.50
2023-06-09T14:15:28.626Z,21.50
2023-06-09T14:17:59.907Z,21.60
2023-06-09T14:20:29.260Z,21.60
2023-06-09T14:22:59.810Z,21.50
2023-06-09T14:25:28.394Z,21.40
2023-06-09T14:27:57.324Z,21.40
2023-06-09T14:30:26.046Z,21.40
2023-06-09T14:32:54.352Z,21.40
2023-06-09T14:35:25.955Z,21.40
2023-06-09T14:37:56.845Z,21.50
2023-06-09T14:40:27.058Z,21.50
2023-06-09T14:42:55.179Z,21.50
2023-06-09T14:45:25.841Z,21.50
2023-06-09T14:47:56.239Z,21.50
2023-06-09T14:50:27.821Z,21.40
2023-06-09T14:53:00.233Z,21.50
2023-06-09T14:55:30.226Z,21.40
2023-06-09T14:58:00.460Z,21.50
2023-06-09T15:00:29.538Z,21.50
2023-06-09T15:02:59.424Z,21.50
2023-06-09T15:05:31.570Z,21.40
2023-06-09T15:08:00.980Z,21.40
2023-06-09T15:10:31.216Z,21.40
2023-06-09T15:13:00.101Z,21.40
2023-06-09T15:15:29.845Z,21.40
2023-06-09T15:17:59.911Z,21.30
2023-06-09T15:20:30.458Z,21.30
2023-06-09T15:23:00.173Z,21.40
2023-06-09T15:25:30.281Z,21.30
2023-06-09T15:28:00.995Z,21.40
2023-06-09T15:30:31.516Z,21.30
2023-06-09T15:33:02.724Z,21.30
2023-06-09T15:35:34.714Z,21.30
2023-06-09T15:38:03.432Z,21.30
2023-06-09T15:40:32.038Z,21.30
2023-06-09T15:43:00.873Z,21.30
2023-06-09T15:45:29.036Z,21.30
2023-06-09T15:47:57.309Z,21.30
2023-06-09T15:50:25.508Z,21.30
2023-06-09T15:52:55.013Z,21.20
2023-06-09T15:55:23.147Z,21.30
2023-06-09T15:57:51.293Z,21.30
2023-06-09T16:00:20.889Z,21.30
2023-06-09T16:02:49.376Z,21.30
2023-06-09T16:05:17.672Z,21.30
2023-06-09T16:07:46.098Z,21.30
2023-06-09T16:10:15.615Z,21.40
2023-06-09T16:12:43.775Z,21.20
2023-06-09T16:15:12.478Z,21.20
2023-06-09T16:17:40.650Z,21.30
2023-06-09T16:20:09.434Z,21.20
2023-06-09T16:22:37.551Z,21.20
2023-06-09T16:25:06.826Z,21.20
2023-06-09T16:27:36.632Z,21.30
2023-06-09T16:30:05.112Z,21.20
2023-06-09T16:32:33.290Z,21.30
2023-06-09T16:35:01.388Z,21.30
2023-06-09T16:37:29.750Z,21.20
2023-06-09T16:39:57.921Z,21.20
2023-06-09T16:42:26.030Z,21.20
2023-06-09T16:44:55.683Z,21.20
2023-06-09T16:47:23.824Z,21.30
2023-06-09T16:49:52.338Z,21.20
2023-06-09T16:52:20.630Z,21.20
2023-06-09T16:54:48.812Z,21.20
2023-06-09T16:57:17.070Z,21.20
2023-06-09T16:59:45.394Z,21.20
2023-06-09T17:02:15.080Z,21.20
2023-06-09T17:04:43.297Z,21.20
2023-06-09T17:07:11.523Z,21.20
2023-06-09T17:09:39.676Z,21.20
2023-06-09T17:12:08.921Z,21.20
2023-06-09T17:14:37.114Z,21.20
2023-06-09T17:17:05.984Z,21.20
2023-06-09T17:19:35.531Z,21.20
2023-06-09T17:22:03.681Z,21.20
2023-06-09T17:24:31.821Z,21.20
2023-06-09T17:27:00.005Z,21.20
2023-06-09T17:29:28.229Z,21.20
2023-06-09T17:31:58.569Z,21.10
2023-06-09T17:34:27.144Z,21.20
2023-06-09T17:36:56.647Z,21.20
2023-06-09T17:39:24.820Z,21.20
2023-06-09T17:41:52.944Z,21.10
2023-06-09T17:44:21.071Z,21.20
2023-06-09T17:46:49.286Z,21.10
2023-06-09T17:49:17.670Z,21.10
2023-06-09T17:51:46.465Z,21.20
2023-06-09T17:54:16.710Z,21.10
2023-06-09T17:56:44.912Z,21.20
2023-06-09T17:59:13.174Z,21.10
2023-06-09T18:01:41.498Z,21.10
2023-06-09T18:04:09.925Z,21.10
2023-06-09T18:06:38.997Z,21.20
2023-06-09T18:09:07.200Z,21.10
2023-06-09T18:11:38.313Z,21.10
2023-06-09T18:14:08.247Z,21.10
2023-06-09T18:16:36.401Z,21.10
2023-06-09T18:19:04.575Z,21.10
2023-06-09T18:21:32.748Z,21.10
2023-06-09T18:24:02.710Z,21.10
2023-06-09T18:26:31.076Z,21.10
2023-06-09T18:29:03.318Z,21.10
2023-06-09T18:31:31.596Z,21.10
2023-06-09T18:34:00.162Z,21.10
2023-06-09T18:36:31.370Z,21.10
2023-06-09T18:39:01.077Z,21.10
2023-06-09T18:41:29.510Z,21.10
2023-06-09T18:43:57.952Z,21.10
2023-06-09T18:46:27.461Z,21.10
2023-06-09T18:49:01.745Z,21.10
2023-06-09T18:51:30.571Z,21.10
2023-06-09T18:53:58.912Z,21.10
2023-06-09T18:56:27.479Z,21.10
2023-06-09T18:58:56.424Z,21.10
2023-06-09T19:01:24.874Z,21.10
2023-06-09T19:03:54.578Z,21.10
2023-06-09T19:06:22.814Z,21.10
2023-06-09T19:08:50.999Z,21.10
2023-06-09T19:11:19.193Z,21.00
2023-06-09T19:13:47.481Z,21.00
2023-06-09T19:16:15.701Z,21.00
2023-06-09T19:18:43.800Z,21.00
2023-06-09T19:21:13.412Z,21.00
2023-06-09T19:23:42.460Z,21.10
2023-06-09T19:26:10.660Z,21.00
2023-06-09T19:28:38.883Z,21.00
2023-06-09T19:31:07.426Z,21.00
2023-06-09T19:33:35.684Z,21.00
2023-06-09T19:36:03.856Z,21.00
2023-06-09T19:38:33.409Z,21.00
2023-06-09T19:41:01.528Z,21.00
2023-06-09T19:43:29.768Z,21.00
2023-06-09T19:45:57.944Z,21.00
2023-06-09T19:48:26.225Z,21.00
2023-06-09T19:50:54.432Z,21.00
2023-06-09T19:53:22.572Z,20.90
2023-06-09T19:55:52.172Z,21.00
2023-06-09T19:58:20.364Z,20.90
2023-06-09T20:00:48.572Z,20.90
2023-06-09T20:03:17.025Z,20.90
2023-06-09T20:05:45.468Z,20.90
2023-06-09T20:08:13.620Z,20.90
2023-06-09T20:10:41.796Z,20.90
2023-06-09T20:13:11.297Z,20.90
2023-06-09T20:15:39.463Z,20.90
2023-06-09T20:18:07.672Z,20.90
2023-06-09T20:20:35.910Z,20.90
2023-06-09T20:23:09.130Z,20.90
2023-06-09T20:25:39.379Z,20.90
2023-06-09T20:28:07.553Z,20.90
2023-06-09T20:30:37.052Z,20.80
2023-06-09T20:33:05.632Z,20.90
2023-06-09T20:35:33.846Z,20.90
2023-06-09T20:38:02.028Z,20.80
2023-06-09T20:40:30.599Z,20.90
2023-06-09T20:42:58.756Z,20.90
2023-06-09T20:45:28.545Z,20.80
2023-06-09T20:47:58.405Z,20.90
2023-06-09T20:50:31.959Z,20.80
2023-06-09T20:53:00.187Z,20.80
2023-06-09T20:55:28.355Z,20.80
2023-06-09T20:57:58.865Z,20.80
2023-06-09T21:00:27.294Z,20.80
2023-06-09T21:03:00.493Z,20.90
2023-06-09T21:05:28.999Z,20.90
2023-06-09T21:07:57.129Z,20.80
2023-06-09T21:10:25.527Z,20.80
2023-06-09T21:12:54.026Z,20.80
2023-06-09T21:15:22.246Z,20.80
2023-06-09T21:17:50.663Z,20.80
2023-06-09T21:20:21.623Z,20.80
2023-06-09T21:22:49.792Z,20.80
2023-06-09T21:25:18.075Z,20.80
2023-06-09T21:27:46.332Z,20.80
2023-06-09T21:30:14.775Z,20.80
2023-06-09T21:32:43.002Z,20.80
2023-06-09T21:35:11.825Z,20.80
2023-06-09T21:37:41.615Z,20.80
2023-06-09T21:40:11.015Z,20.80
2023-06-09T21:42:39.200Z,20.80
2023-06-09T21:45:08.667Z,20.80
2023-06-09T21:47:37.107Z,20.80
2023-06-09T21:50:05.870Z,20.80
2023-06-09T21:52:34.100Z,20.80
2023-06-09T21:55:05.098Z,20.80
2023-06-09T21:57:33.481Z,20.80
2023-06-09T22:00:01.972Z,20.70
2023-06-09T22:02:33.740Z,20.80
2023-06-09T22:05:01.895Z,20.80
2023-06-09T22:07:30.052Z,20.80
2023-06-09T22:09:58.287Z,20.70
2023-06-09T22:12:28.221Z,20.70
2023-06-09T22:14:56.470Z,20.70
2023-06-09T22:17:25.702Z,20.70
2023-06-09T22:19:53.914Z,20.70
2023-06-09T22:22:22.065Z,20.80
2023-06-09T22:24:50.296Z,20.70
2023-06-09T22:27:18.731Z,20.70
2023-06-09T22:29:48.167Z,20.70
2023-06-09T22:32:16.299Z,20.70
2023-06-09T22:34:45.205Z,20.70
2023-06-09T22:37:13.756Z,20.70
2023-06-09T22:39:42.491Z,20.70
2023-06-09T22:42:11.447Z,20.70
2023-06-09T22:44:42.224Z,20.70
2023-06-09T22:47:11.766Z,20.70
2023-06-09T22:50:03.923Z,20.70
2023-06-09T22:52:33.316Z,20.70
2023-06-09T22:55:01.597Z,20.70
2023-06-09T22:57:29.891Z,20.70
2023-06-09T22:59:58.090Z,20.70
2023-06-09T23:02:27.738Z,20.70
2023-06-09T23:05:02.735Z,20.70
2023-06-09T23:07:30.949Z,20.70
2023-06-09T23:09:59.074Z,20.70
2023-06-09T23:12:27.245Z,20.70
2023-06-09T23:14:56.301Z,20.60
2023-06-09T23:17:24.499Z,20.70
2023-06-09T23:19:54.004Z,20.60
2023-06-09T23:22:22.366Z,20.60
2023-06-09T23:24:50.630Z,20.60
2023-06-09T23:27:18.793Z,20.60
2023-06-09T23:29:49.211Z,20.70
2023-06-09T23:32:17.457Z,20.60
2023-06-09T23:34:45.817Z,20.60
2023-06-09T23:37:16.053Z,20.60
2023-06-09T23:39:44.393Z,20.60
2023-06-09T23:42:12.542Z,20.60
2023-06-09T23:44:42.055Z,20.60
2023-06-09T23:47:10.625Z,20.60
2023-06-09T23:49:38.798Z,20.60
2023-06-09T23:52:07.551Z,20.60
2023-06-09T23:54:37.093Z,20.60
2023-06-09T23:57:07.302Z,20.60
2023-06-09T23:59:35.462Z,20.60
